sensor_id;sensor_type;location;lat;lon;timestamp;P1;durP1;ratioP1;P2;durP2;ratioP2
16288;SDS011;26089;43.538;5.250;2022-12-18T00:01:00;25.67;;;14.27;;
16288;SDS011;26089;43.538;5.250;2022-12-18T00:03:31;33.13;;;19.57;;
16288;SDS011;26089;43.538;5.250;2022-12-18T00:05:58;21.63;;;13.57;;
16288;SDS011;26089;43.538;5.250;2022-12-18T00:08:25;13.80;;;10.60;;
16288;SDS011;26089;43.538;5.250;2022-12-18T00:10:53;13.67;;;10.80;;
16288;SDS011;26089;43.538;5.250;2022-12-18T00:13:20;14.63;;;10.77;;
16288;SDS011;26089;43.538;5.250;2022-12-18T00:15:48;12.00;;;9.23;;
16288;SDS011;26089;43.538;5.250;2022-12-18T00:18:15;11.50;;;9.53;;
16288;SDS011;26089;43.538;5.250;2022-12-18T00:20:42;11.83;;;10.33;;
16288;SDS011;26089;43.538;5.250;2022-12-18T00:23:09;12.93;;;10.00;;
16288;SDS011;26089;43.538;5.250;2022-12-18T00:25:36;11.83;;;9.83;;
16288;SDS011;26089;43.538;5.250;2022-12-18T00:28:03;13.67;;;11.00;;
16288;SDS011;26089;43.538;5.250;2022-12-18T00:30:30;15.27;;;11.83;;
16288;SDS011;26089;43.538;5.250;2022-12-18T00:32:59;16.47;;;12.73;;
16288;SDS011;26089;43.538;5.250;2022-12-18T00:35:26;19.20;;;14.47;;
16288;SDS011;26089;43.538;5.250;2022-12-18T00:37:53;21.53;;;14.77;;
16288;SDS011;26089;43.538;5.250;2022-12-18T00:40:20;18.37;;;14.10;;
16288;SDS011;26089;43.538;5.250;2022-12-18T00:42:47;18.00;;;14.57;;
16288;SDS011;26089;43.538;5.250;2022-12-18T00:45:22;19.53;;;14.90;;
16288;SDS011;26089;43.538;5.250;2022-12-18T00:47:51;17.50;;;13.87;;
16288;SDS011;26089;43.538;5.250;2022-12-18T00:50:20;17.70;;;12.10;;
16288;SDS011;26089;43.538;5.250;2022-12-18T00:52:47;15.40;;;12.23;;
16288;SDS011;26089;43.538;5.250;2022-12-18T00:55:14;15.90;;;12.50;;
16288;SDS011;26089;43.538;5.250;2022-12-18T00:57:42;15.10;;;12.27;;
16288;SDS011;26089;43.538;5.250;2022-12-18T01:00:11;12.20;;;10.63;;
16288;SDS011;26089;43.538;5.250;2022-12-18T01:02:39;15.03;;;11.47;;
16288;SDS011;26089;43.538;5.250;2022-12-18T01:05:07;13.37;;;11.47;;
16288;SDS011;26089;43.538;5.250;2022-12-18T01:07:37;12.27;;;10.67;;
16288;SDS011;26089;43.538;5.250;2022-12-18T01:10:04;12.70;;;10.63;;
16288;SDS011;26089;43.538;5.250;2022-12-18T01:12:33;11.73;;;10.47;;
16288;SDS011;26089;43.538;5.250;2022-12-18T01:15:00;15.13;;;13.07;;
16288;SDS011;26089;43.538;5.250;2022-12-18T01:17:27;13.63;;;10.83;;
16288;SDS011;26089;43.538;5.250;2022-12-18T01:19:54;14.30;;;12.00;;
16288;SDS011;26089;43.538;5.250;2022-12-18T01:22:21;11.70;;;9.40;;
16288;SDS011;26089;43.538;5.250;2022-12-18T01:24:49;10.80;;;9.57;;
16288;SDS011;26089;43.538;5.250;2022-12-18T01:27:16;11.60;;;10.23;;
16288;SDS011;26089;43.538;5.250;2022-12-18T01:29:43;12.20;;;9.43;;
16288;SDS011;26089;43.538;5.250;2022-12-18T01:32:10;10.63;;;9.53;;
16288;SDS011;26089;43.538;5.250;2022-12-18T01:34:37;12.23;;;10.53;;
16288;SDS011;26089;43.538;5.250;2022-12-18T01:37:05;13.77;;;11.40;;
16288;SDS011;26089;43.538;5.250;2022-12-18T01:39:32;12.20;;;11.00;;
16288;SDS011;26089;43.538;5.250;2022-12-18T01:42:01;15.47;;;10.53;;
16288;SDS011;26089;43.538;5.250;2022-12-18T01:47:23;13.17;;;9.20;;
16288;SDS011;26089;43.538;5.250;2022-12-18T01:49:52;11.50;;;9.20;;
16288;SDS011;26089;43.538;5.250;2022-12-18T01:52:20;11.67;;;9.40;;
16288;SDS011;26089;43.538;5.250;2022-12-18T01:54:50;22.30;;;16.07;;
16288;SDS011;26089;43.538;5.250;2022-12-18T01:57:20;12.77;;;10.90;;
16288;SDS011;26089;43.538;5.250;2022-12-18T01:59:49;12.07;;;9.60;;
16288;SDS011;26089;43.538;5.250;2022-12-18T02:02:19;10.53;;;8.70;;
16288;SDS011;26089;43.538;5.250;2022-12-18T02:04:47;10.70;;;8.80;;
16288;SDS011;26089;43.538;5.250;2022-12-18T02:07:14;13.43;;;10.33;;
16288;SDS011;26089;43.538;5.250;2022-12-18T02:09:52;9.90;;;8.43;;
16288;SDS011;26089;43.538;5.250;2022-12-18T02:12:27;12.77;;;10.27;;
16288;SDS011;26089;43.538;5.250;2022-12-18T02:15:03;12.13;;;8.93;;
16288;SDS011;26089;43.538;5.250;2022-12-18T02:17:36;12.63;;;9.50;;
16288;SDS011;26089;43.538;5.250;2022-12-18T02:20:11;10.93;;;8.10;;
16288;SDS011;26089;43.538;5.250;2022-12-18T02:22:45;20.70;;;13.10;;
16288;SDS011;26089;43.538;5.250;2022-12-18T02:25:28;11.80;;;7.70;;
16288;SDS011;26089;43.538;5.250;2022-12-18T02:28:09;17.50;;;11.17;;
16288;SDS011;26089;43.538;5.250;2022-12-18T02:30:39;16.13;;;10.07;;
16288;SDS011;26089;43.538;5.250;2022-12-18T02:33:08;13.00;;;9.60;;
16288;SDS011;26089;43.538;5.250;2022-12-18T02:35:38;10.20;;;7.63;;
16288;SDS011;26089;43.538;5.250;2022-12-18T02:38:08;9.67;;;7.87;;
16288;SDS011;26089;43.538;5.250;2022-12-18T02:40:37;8.33;;;7.53;;
16288;SDS011;26089;43.538;5.250;2022-12-18T02:43:08;11.90;;;9.10;;
16288;SDS011;26089;43.538;5.250;2022-12-18T02:45:45;14.67;;;9.53;;
16288;SDS011;26089;43.538;5.250;2022-12-18T02:48:13;10.03;;;7.83;;
16288;SDS011;26089;43.538;5.250;2022-12-18T02:50:42;33.23;;;15.23;;
16288;SDS011;26089;43.538;5.250;2022-12-18T02:53:17;10.50;;;8.40;;
16288;SDS011;26089;43.538;5.250;2022-12-18T02:55:52;7.50;;;6.60;;
16288;SDS011;26089;43.538;5.250;2022-12-18T02:58:29;8.20;;;6.47;;
16288;SDS011;26089;43.538;5.250;2022-12-18T03:01:02;8.73;;;7.07;;
16288;SDS011;26089;43.538;5.250;2022-12-18T03:03:36;7.80;;;7.10;;
16288;SDS011;26089;43.538;5.250;2022-12-18T03:06:08;9.80;;;7.80;;
16288;SDS011;26089;43.538;5.250;2022-12-18T03:08:41;9.50;;;7.90;;
16288;SDS011;26089;43.538;5.250;2022-12-18T03:11:11;10.30;;;8.30;;
16288;SDS011;26089;43.538;5.250;2022-12-18T03:13:42;10.83;;;8.27;;
16288;SDS011;26089;43.538;5.250;2022-12-18T03:16:17;9.10;;;8.20;;
16288;SDS011;26089;43.538;5.250;2022-12-18T03:18:49;11.03;;;8.40;;
16288;SDS011;26089;43.538;5.250;2022-12-18T03:21:21;11.93;;;8.20;;
16288;SDS011;26089;43.538;5.250;2022-12-18T03:23:54;8.90;;;7.57;;
16288;SDS011;26089;43.538;5.250;2022-12-18T03:26:23;10.53;;;7.47;;
16288;SDS011;26089;43.538;5.250;2022-12-18T03:28:54;10.67;;;7.60;;
16288;SDS011;26089;43.538;5.250;2022-12-18T03:31:26;9.57;;;7.80;;
16288;SDS011;26089;43.538;5.250;2022-12-18T03:33:57;11.27;;;8.93;;
16288;SDS011;26089;43.538;5.250;2022-12-18T03:36:27;10.73;;;8.90;;
16288;SDS011;26089;43.538;5.250;2022-12-18T03:38:54;10.73;;;9.23;;
16288;SDS011;26089;43.538;5.250;2022-12-18T03:41:25;10.13;;;9.00;;
16288;SDS011;26089;43.538;5.250;2022-12-18T03:44:00;11.80;;;8.43;;
16288;SDS011;26089;43.538;5.250;2022-12-18T03:46:38;13.40;;;10.10;;
16288;SDS011;26089;43.538;5.250;2022-12-18T03:49:10;10.27;;;7.73;;
16288;SDS011;26089;43.538;5.250;2022-12-18T03:51:42;9.73;;;7.47;;
16288;SDS011;26089;43.538;5.250;2022-12-18T03:54:16;8.47;;;6.73;;
16288;SDS011;26089;43.538;5.250;2022-12-18T03:56:45;7.70;;;6.80;;
16288;SDS011;26089;43.538;5.250;2022-12-18T03:59:16;13.03;;;8.07;;
16288;SDS011;26089;43.538;5.250;2022-12-18T04:01:45;10.87;;;7.87;;
16288;SDS011;26089;43.538;5.250;2022-12-18T04:04:14;9.20;;;7.97;;
16288;SDS011;26089;43.538;5.250;2022-12-18T04:06:43;9.30;;;8.27;;
16288;SDS011;26089;43.538;5.250;2022-12-18T04:09:13;12.93;;;9.43;;
16288;SDS011;26089;43.538;5.250;2022-12-18T04:11:40;10.03;;;8.80;;
16288;SDS011;26089;43.538;5.250;2022-12-18T04:14:09;9.87;;;7.97;;
16288;SDS011;26089;43.538;5.250;2022-12-18T04:16:37;11.20;;;8.73;;
16288;SDS011;26089;43.538;5.250;2022-12-18T04:19:04;11.83;;;9.47;;
16288;SDS011;26089;43.538;5.250;2022-12-18T04:21:31;11.13;;;9.93;;
16288;SDS011;26089;43.538;5.250;2022-12-18T04:23:58;10.27;;;8.93;;
16288;SDS011;26089;43.538;5.250;2022-12-18T04:26:25;11.93;;;8.60;;
16288;SDS011;26089;43.538;5.250;2022-12-18T04:28:52;13.43;;;8.70;;
16288;SDS011;26089;43.538;5.250;2022-12-18T04:31:19;9.97;;;8.10;;
16288;SDS011;26089;43.538;5.250;2022-12-18T04:33:48;12.03;;;8.17;;
16288;SDS011;26089;43.538;5.250;2022-12-18T04:36:15;11.27;;;7.83;;
16288;SDS011;26089;43.538;5.250;2022-12-18T04:38:42;8.97;;;7.27;;
16288;SDS011;26089;43.538;5.250;2022-12-18T04:41:09;7.40;;;6.57;;
16288;SDS011;26089;43.538;5.250;2022-12-18T04:43:36;8.47;;;6.77;;
16288;SDS011;26089;43.538;5.250;2022-12-18T04:46:03;8.57;;;7.77;;
16288;SDS011;26089;43.538;5.250;2022-12-18T04:48:31;7.73;;;6.90;;
16288;SDS011;26089;43.538;5.250;2022-12-18T04:51:00;6.97;;;5.87;;
16288;SDS011;26089;43.538;5.250;2022-12-18T04:53:27;7.63;;;6.57;;
16288;SDS011;26089;43.538;5.250;2022-12-18T04:56:01;7.37;;;6.57;;
16288;SDS011;26089;43.538;5.250;2022-12-18T04:58:32;7.57;;;5.67;;
16288;SDS011;26089;43.538;5.250;2022-12-18T05:00:59;7.27;;;6.07;;
16288;SDS011;26089;43.538;5.250;2022-12-18T05:03:27;7.33;;;6.63;;
16288;SDS011;26089;43.538;5.250;2022-12-18T05:05:54;7.10;;;5.90;;
16288;SDS011;26089;43.538;5.250;2022-12-18T05:08:22;8.23;;;7.07;;
16288;SDS011;26089;43.538;5.250;2022-12-18T05:10:50;7.47;;;6.73;;
16288;SDS011;26089;43.538;5.250;2022-12-18T05:13:25;7.73;;;6.93;;
16288;SDS011;26089;43.538;5.250;2022-12-18T05:15:52;9.33;;;6.83;;
16288;SDS011;26089;43.538;5.250;2022-12-18T05:18:19;7.87;;;6.60;;
16288;SDS011;26089;43.538;5.250;2022-12-18T05:20:46;6.23;;;5.63;;
16288;SDS011;26089;43.538;5.250;2022-12-18T05:23:13;7.93;;;6.33;;
16288;SDS011;26089;43.538;5.250;2022-12-18T05:25:42;8.77;;;6.43;;
16288;SDS011;26089;43.538;5.250;2022-12-18T05:28:08;6.77;;;5.63;;
16288;SDS011;26089;43.538;5.250;2022-12-18T05:30:35;7.23;;;6.37;;
16288;SDS011;26089;43.538;5.250;2022-12-18T05:33:03;7.10;;;6.40;;
16288;SDS011;26089;43.538;5.250;2022-12-18T05:35:29;6.47;;;5.83;;
16288;SDS011;26089;43.538;5.250;2022-12-18T05:37:56;7.83;;;7.07;;
16288;SDS011;26089;43.538;5.250;2022-12-18T05:40:23;6.37;;;5.77;;
16288;SDS011;26089;43.538;5.250;2022-12-18T05:42:52;7.50;;;6.57;;
16288;SDS011;26089;43.538;5.250;2022-12-18T05:45:19;7.63;;;5.87;;
16288;SDS011;26089;43.538;5.250;2022-12-18T05:47:46;9.00;;;5.70;;
16288;SDS011;26089;43.538;5.250;2022-12-18T05:50:13;7.47;;;5.67;;
16288;SDS011;26089;43.538;5.250;2022-12-18T05:52:40;7.03;;;6.03;;
16288;SDS011;26089;43.538;5.250;2022-12-18T05:55:07;6.67;;;6.07;;
16288;SDS011;26089;43.538;5.250;2022-12-18T05:57:35;6.83;;;5.80;;
16288;SDS011;26089;43.538;5.250;2022-12-18T06:00:04;6.63;;;5.93;;
16288;SDS011;26089;43.538;5.250;2022-12-18T06:02:31;9.23;;;6.53;;
16288;SDS011;26089;43.538;5.250;2022-12-18T06:04:58;8.10;;;6.63;;
16288;SDS011;26089;43.538;5.250;2022-12-18T06:07:25;7.40;;;6.40;;
16288;SDS011;26089;43.538;5.250;2022-12-18T06:09:52;10.00;;;6.90;;
16288;SDS011;26089;43.538;5.250;2022-12-18T06:12:19;10.37;;;6.43;;
16288;SDS011;26089;43.538;5.250;2022-12-18T06:14:46;9.87;;;7.00;;
16288;SDS011;26089;43.538;5.250;2022-12-18T06:17:15;7.23;;;6.63;;
16288;SDS011;26089;43.538;5.250;2022-12-18T06:19:42;8.00;;;6.23;;
16288;SDS011;26089;43.538;5.250;2022-12-18T06:22:09;7.70;;;6.90;;
16288;SDS011;26089;43.538;5.250;2022-12-18T06:24:36;10.67;;;6.60;;
16288;SDS011;26089;43.538;5.250;2022-12-18T06:27:03;7.47;;;5.90;;
16288;SDS011;26089;43.538;5.250;2022-12-18T06:29:30;8.83;;;6.10;;
16288;SDS011;26089;43.538;5.250;2022-12-18T06:31:57;7.70;;;6.53;;
16288;SDS011;26089;43.538;5.250;2022-12-18T06:34:25;6.93;;;6.27;;
16288;SDS011;26089;43.538;5.250;2022-12-18T06:36:52;7.90;;;5.73;;
16288;SDS011;26089;43.538;5.250;2022-12-18T06:39:19;6.30;;;5.30;;
16288;SDS011;26089;43.538;5.250;2022-12-18T06:41:46;5.70;;;5.20;;
16288;SDS011;26089;43.538;5.250;2022-12-18T06:44:13;7.00;;;5.20;;
16288;SDS011;26089;43.538;5.250;2022-12-18T06:46:40;9.27;;;5.10;;
16288;SDS011;26089;43.538;5.250;2022-12-18T06:49:07;8.23;;;5.90;;
16288;SDS011;26089;43.538;5.250;2022-12-18T06:51:36;7.20;;;5.83;;
16288;SDS011;26089;43.538;5.250;2022-12-18T06:54:03;7.33;;;5.97;;
16288;SDS011;26089;43.538;5.250;2022-12-18T06:56:30;8.10;;;6.33;;
16288;SDS011;26089;43.538;5.250;2022-12-18T06:58:57;7.13;;;5.77;;
16288;SDS011;26089;43.538;5.250;2022-12-18T07:01:24;6.23;;;5.63;;
16288;SDS011;26089;43.538;5.250;2022-12-18T07:03:52;7.23;;;5.73;;
16288;SDS011;26089;43.538;5.250;2022-12-18T07:06:20;7.77;;;5.70;;
16288;SDS011;26089;43.538;5.250;2022-12-18T07:08:50;5.90;;;5.40;;
16288;SDS011;26089;43.538;5.250;2022-12-18T07:11:19;5.47;;;4.97;;
16288;SDS011;26089;43.538;5.250;2022-12-18T07:13:46;6.67;;;5.30;;
16288;SDS011;26089;43.538;5.250;2022-12-18T07:16:14;7.63;;;5.90;;
16288;SDS011;26089;43.538;5.250;2022-12-18T07:18:43;6.63;;;5.20;;
16288;SDS011;26089;43.538;5.250;2022-12-18T07:21:11;6.87;;;5.67;;
16288;SDS011;26089;43.538;5.250;2022-12-18T07:23:39;5.83;;;5.20;;
16288;SDS011;26089;43.538;5.250;2022-12-18T07:26:08;7.17;;;6.17;;
16288;SDS011;26089;43.538;5.250;2022-12-18T07:28:36;8.10;;;6.53;;
16288;SDS011;26089;43.538;5.250;2022-12-18T07:31:05;7.40;;;6.20;;
16288;SDS011;26089;43.538;5.250;2022-12-18T07:33:33;10.43;;;7.47;;
16288;SDS011;26089;43.538;5.250;2022-12-18T07:36:01;8.53;;;5.50;;
16288;SDS011;26089;43.538;5.250;2022-12-18T07:38:29;7.23;;;6.17;;
16288;SDS011;26089;43.538;5.250;2022-12-18T07:40:59;7.83;;;5.33;;
16288;SDS011;26089;43.538;5.250;2022-12-18T07:43:28;7.33;;;6.40;;
16288;SDS011;26089;43.538;5.250;2022-12-18T07:45:55;6.20;;;5.60;;
16288;SDS011;26089;43.538;5.250;2022-12-18T07:48:22;10.97;;;5.57;;
16288;SDS011;26089;43.538;5.250;2022-12-18T07:50:49;6.57;;;5.97;;
16288;SDS011;26089;43.538;5.250;2022-12-18T07:53:16;7.27;;;6.30;;
16288;SDS011;26089;43.538;5.250;2022-12-18T07:55:43;7.80;;;6.40;;
16288;SDS011;26089;43.538;5.250;2022-12-18T07:58:10;6.57;;;5.80;;
16288;SDS011;26089;43.538;5.250;2022-12-18T08:00:39;7.10;;;6.40;;
16288;SDS011;26089;43.538;5.250;2022-12-18T08:03:06;9.73;;;5.63;;
16288;SDS011;26089;43.538;5.250;2022-12-18T08:05:33;6.37;;;5.00;;
16288;SDS011;26089;43.538;5.250;2022-12-18T08:08:00;6.77;;;5.17;;
16288;SDS011;26089;43.538;5.250;2022-12-18T08:10:27;4.63;;;4.20;;
16288;SDS011;26089;43.538;5.250;2022-12-18T08:12:54;4.73;;;4.17;;
16288;SDS011;26089;43.538;5.250;2022-12-18T08:15:21;4.70;;;4.30;;
16288;SDS011;26089;43.538;5.250;2022-12-18T08:17:49;5.87;;;4.93;;
16288;SDS011;26089;43.538;5.250;2022-12-18T08:20:16;5.73;;;4.63;;
16288;SDS011;26089;43.538;5.250;2022-12-18T08:22:44;6.87;;;4.80;;
16288;SDS011;26089;43.538;5.250;2022-12-18T08:25:11;5.93;;;5.07;;
16288;SDS011;26089;43.538;5.250;2022-12-18T08:27:38;5.53;;;4.83;;
16288;SDS011;26089;43.538;5.250;2022-12-18T08:30:05;7.07;;;5.30;;
16288;SDS011;26089;43.538;5.250;2022-12-18T08:32:33;6.17;;;4.80;;
16288;SDS011;26089;43.538;5.250;2022-12-18T08:35:02;5.33;;;4.83;;
16288;SDS011;26089;43.538;5.250;2022-12-18T08:37:29;4.83;;;4.33;;
16288;SDS011;26089;43.538;5.250;2022-12-18T08:39:56;5.27;;;4.77;;
16288;SDS011;26089;43.538;5.250;2022-12-18T08:42:23;5.90;;;5.30;;
16288;SDS011;26089;43.538;5.250;2022-12-18T08:45:08;9.63;;;5.30;;
16288;SDS011;26089;43.538;5.250;2022-12-18T08:47:35;8.13;;;5.40;;
16288;SDS011;26089;43.538;5.250;2022-12-18T08:50:04;5.90;;;5.13;;
16288;SDS011;26089;43.538;5.250;2022-12-18T08:52:32;6.93;;;5.03;;
16288;SDS011;26089;43.538;5.250;2022-12-18T08:54:59;6.80;;;5.03;;
16288;SDS011;26089;43.538;5.250;2022-12-18T08:57:26;7.67;;;5.20;;
16288;SDS011;26089;43.538;5.250;2022-12-18T08:59:53;5.70;;;5.13;;
16288;SDS011;26089;43.538;5.250;2022-12-18T09:02:20;6.87;;;5.40;;
16288;SDS011;26089;43.538;5.250;2022-12-18T09:04:47;6.33;;;5.17;;
16288;SDS011;26089;43.538;5.250;2022-12-18T09:07:15;6.23;;;5.57;;
16288;SDS011;26089;43.538;5.250;2022-12-18T09:09:42;7.70;;;5.80;;
16288;SDS011;26089;43.538;5.250;2022-12-18T09:12:10;5.33;;;4.70;;
16288;SDS011;26089;43.538;5.250;2022-12-18T09:14:37;5.60;;;4.83;;
16288;SDS011;26089;43.538;5.250;2022-12-18T09:17:04;4.60;;;4.20;;
16288;SDS011;26089;43.538;5.250;2022-12-18T09:19:31;6.03;;;4.63;;
16288;SDS011;26089;43.538;5.250;2022-12-18T09:21:58;5.67;;;5.13;;
16288;SDS011;26089;43.538;5.250;2022-12-18T09:24:26;5.57;;;5.00;;
16288;SDS011;26089;43.538;5.250;2022-12-18T09:26:53;5.33;;;4.50;;
16288;SDS011;26089;43.538;5.250;2022-12-18T09:29:20;6.43;;;4.70;;
16288;SDS011;26089;43.538;5.250;2022-12-18T09:31:48;5.67;;;5.17;;
16288;SDS011;26089;43.538;5.250;2022-12-18T09:34:15;5.30;;;4.80;;
16288;SDS011;26089;43.538;5.250;2022-12-18T09:36:42;5.33;;;4.80;;
16288;SDS011;26089;43.538;5.250;2022-12-18T09:39:10;6.93;;;5.17;;
16288;SDS011;26089;43.538;5.250;2022-12-18T09:41:42;8.77;;;6.00;;
16288;SDS011;26089;43.538;5.250;2022-12-18T09:47:03;12.57;;;5.20;;
16288;SDS011;26089;43.538;5.250;2022-12-18T09:49:37;6.47;;;4.93;;
16288;SDS011;26089;43.538;5.250;2022-12-18T09:52:09;5.50;;;4.20;;
16288;SDS011;26089;43.538;5.250;2022-12-18T09:54:42;5.63;;;5.00;;
16288;SDS011;26089;43.538;5.250;2022-12-18T09:57:14;6.77;;;4.77;;
16288;SDS011;26089;43.538;5.250;2022-12-18T09:59:46;4.67;;;4.27;;
16288;SDS011;26089;43.538;5.250;2022-12-18T10:02:19;4.73;;;4.10;;
16288;SDS011;26089;43.538;5.250;2022-12-18T10:04:49;5.77;;;4.70;;
16288;SDS011;26089;43.538;5.250;2022-12-18T10:07:30;5.30;;;4.80;;
16288;SDS011;26089;43.538;5.250;2022-12-18T10:10:06;6.00;;;5.20;;
16288;SDS011;26089;43.538;5.250;2022-12-18T10:12:41;6.70;;;4.83;;
16288;SDS011;26089;43.538;5.250;2022-12-18T10:15:13;5.23;;;4.73;;
16288;SDS011;26089;43.538;5.250;2022-12-18T10:17:50;7.37;;;4.40;;
16288;SDS011;26089;43.538;5.250;2022-12-18T10:20:24;6.60;;;5.03;;
16288;SDS011;26089;43.538;5.250;2022-12-18T10:23:00;6.63;;;5.07;;
16288;SDS011;26089;43.538;5.250;2022-12-18T10:25:37;6.63;;;5.07;;
16288;SDS011;26089;43.538;5.250;2022-12-18T10:28:16;5.50;;;4.50;;
16288;SDS011;26089;43.538;5.250;2022-12-18T10:30:45;5.43;;;4.50;;
16288;SDS011;26089;43.538;5.250;2022-12-18T10:33:12;6.83;;;4.83;;
16288;SDS011;26089;43.538;5.250;2022-12-18T10:35:41;5.07;;;4.47;;
16288;SDS011;26089;43.538;5.250;2022-12-18T10:38:21;4.37;;;3.87;;
16288;SDS011;26089;43.538;5.250;2022-12-18T10:40:50;4.70;;;4.30;;
16288;SDS011;26089;43.538;5.250;2022-12-18T10:43:21;4.20;;;3.90;;
16288;SDS011;26089;43.538;5.250;2022-12-18T10:46:04;6.10;;;4.10;;
16288;SDS011;26089;43.538;5.250;2022-12-18T10:48:47;6.17;;;4.10;;
16288;SDS011;26089;43.538;5.250;2022-12-18T10:51:21;5.30;;;4.37;;
16288;SDS011;26089;43.538;5.250;2022-12-18T10:53:51;4.77;;;4.10;;
16288;SDS011;26089;43.538;5.250;2022-12-18T10:56:23;4.57;;;4.00;;
16288;SDS011;26089;43.538;5.250;2022-12-18T10:58:58;4.17;;;3.87;;
16288;SDS011;26089;43.538;5.250;2022-12-18T11:01:26;5.90;;;3.90;;
16288;SDS011;26089;43.538;5.250;2022-12-18T11:04:01;4.07;;;3.57;;
16288;SDS011;26089;43.538;5.250;2022-12-18T11:06:34;8.17;;;3.50;;
16288;SDS011;26089;43.538;5.250;2022-12-18T11:09:20;5.37;;;3.83;;
16288;SDS011;26089;43.538;5.250;2022-12-18T11:11:48;12.53;;;6.20;;
16288;SDS011;26089;43.538;5.250;2022-12-18T11:14:20;7.47;;;3.90;;
16288;SDS011;26089;43.538;5.250;2022-12-18T11:16:49;6.93;;;4.63;;
16288;SDS011;26089;43.538;5.250;2022-12-18T11:19:20;6.53;;;4.03;;
16288;SDS011;26089;43.538;5.250;2022-12-18T11:21:51;7.00;;;4.07;;
16288;SDS011;26089;43.538;5.250;2022-12-18T11:24:19;5.63;;;3.73;;
16288;SDS011;26089;43.538;5.250;2022-12-18T11:26:51;5.80;;;3.90;;
16288;SDS011;26089;43.538;5.250;2022-12-18T11:29:23;5.90;;;3.67;;
16288;SDS011;26089;43.538;5.250;2022-12-18T11:32:04;6.43;;;4.00;;
16288;SDS011;26089;43.538;5.250;2022-12-18T11:34:58;4.73;;;4.20;;
16288;SDS011;26089;43.538;5.250;2022-12-18T11:37:29;6.33;;;3.73;;
16288;SDS011;26089;43.538;5.250;2022-12-18T11:39:58;5.87;;;4.07;;
16288;SDS011;26089;43.538;5.250;2022-12-18T11:42:32;4.73;;;3.70;;
16288;SDS011;26089;43.538;5.250;2022-12-18T11:45:08;4.60;;;3.50;;
16288;SDS011;26089;43.538;5.250;2022-12-18T11:47:58;4.23;;;3.37;;
16288;SDS011;26089;43.538;5.250;2022-12-18T11:50:32;6.23;;;3.40;;
16288;SDS011;26089;43.538;5.250;2022-12-18T11:53:09;6.07;;;3.73;;
16288;SDS011;26089;43.538;5.250;2022-12-18T11:55:39;4.33;;;2.80;;
16288;SDS011;26089;43.538;5.250;2022-12-18T11:58:14;5.93;;;3.60;;
16288;SDS011;26089;43.538;5.250;2022-12-18T12:00:51;4.73;;;3.27;;
16288;SDS011;26089;43.538;5.250;2022-12-18T12:03:29;5.20;;;3.20;;
16288;SDS011;26089;43.538;5.250;2022-12-18T12:06:12;3.77;;;3.27;;
16288;SDS011;26089;43.538;5.250;2022-12-18T12:08:47;4.00;;;3.50;;
16288;SDS011;26089;43.538;5.250;2022-12-18T12:11:27;5.97;;;3.30;;
16288;SDS011;26089;43.538;5.250;2022-12-18T12:14:09;3.60;;;3.03;;
16288;SDS011;26089;43.538;5.250;2022-12-18T12:16:48;6.73;;;3.37;;
16288;SDS011;26089;43.538;5.250;2022-12-18T12:19:28;5.20;;;3.37;;
16288;SDS011;26089;43.538;5.250;2022-12-18T12:22:03;5.97;;;3.73;;
16288;SDS011;26089;43.538;5.250;2022-12-18T12:24:42;6.63;;;3.80;;
16288;SDS011;26089;43.538;5.250;2022-12-18T12:27:18;5.67;;;3.40;;
16288;SDS011;26089;43.538;5.250;2022-12-18T12:29:57;3.63;;;2.97;;
16288;SDS011;26089;43.538;5.250;2022-12-18T12:32:34;4.90;;;3.20;;
16288;SDS011;26089;43.538;5.250;2022-12-18T12:35:26;6.33;;;3.90;;
16288;SDS011;26089;43.538;5.250;2022-12-18T12:38:02;8.60;;;5.33;;
16288;SDS011;26089;43.538;5.250;2022-12-18T12:40:35;8.70;;;5.60;;
16288;SDS011;26089;43.538;5.250;2022-12-18T12:43:10;9.90;;;6.93;;
16288;SDS011;26089;43.538;5.250;2022-12-18T12:45:46;6.53;;;4.23;;
16288;SDS011;26089;43.538;5.250;2022-12-18T12:48:18;6.10;;;3.90;;
16288;SDS011;26089;43.538;5.250;2022-12-18T12:50:52;5.93;;;3.80;;
16288;SDS011;26089;43.538;5.250;2022-12-18T12:53:23;6.13;;;4.00;;
16288;SDS011;26089;43.538;5.250;2022-12-18T12:55:55;4.40;;;3.30;;
16288;SDS011;26089;43.538;5.250;2022-12-18T12:58:25;4.03;;;3.27;;
16288;SDS011;26089;43.538;5.250;2022-12-18T13:01:01;6.60;;;3.57;;
16288;SDS011;26089;43.538;5.250;2022-12-18T13:03:43;5.17;;;3.37;;
16288;SDS011;26089;43.538;5.250;2022-12-18T13:06:19;3.30;;;2.87;;
16288;SDS011;26089;43.538;5.250;2022-12-18T13:08:56;4.63;;;3.30;;
16288;SDS011;26089;43.538;5.250;2022-12-18T13:14:28;5.87;;;3.57;;
16288;SDS011;26089;43.538;5.250;2022-12-18T13:20:03;6.33;;;3.20;;
16288;SDS011;26089;43.538;5.250;2022-12-18T13:22:34;4.37;;;2.80;;
16288;SDS011;26089;43.538;5.250;2022-12-18T13:25:03;6.77;;;3.07;;
16288;SDS011;26089;43.538;5.250;2022-12-18T13:30:46;5.40;;;2.87;;
16288;SDS011;26089;43.538;5.250;2022-12-18T13:36:23;5.60;;;3.03;;
16288;SDS011;26089;43.538;5.250;2022-12-18T13:39:10;4.07;;;2.70;;
16288;SDS011;26089;43.538;5.250;2022-12-18T13:41:53;3.93;;;3.00;;
16288;SDS011;26089;43.538;5.250;2022-12-18T13:45:00;4.37;;;2.60;;
16288;SDS011;26089;43.538;5.250;2022-12-18T13:47:30;5.00;;;2.93;;
16288;SDS011;26089;43.538;5.250;2022-12-18T13:49:59;5.80;;;3.13;;
16288;SDS011;26089;43.538;5.250;2022-12-18T13:52:33;6.87;;;3.00;;
16288;SDS011;26089;43.538;5.250;2022-12-18T13:55:04;4.93;;;2.83;;
16288;SDS011;26089;43.538;5.250;2022-12-18T13:57:34;6.17;;;3.20;;
16288;SDS011;26089;43.538;5.250;2022-12-18T14:00:16;5.57;;;3.17;;
16288;SDS011;26089;43.538;5.250;2022-12-18T14:02:51;4.47;;;3.13;;
16288;SDS011;26089;43.538;5.250;2022-12-18T14:05:21;9.60;;;6.13;;
16288;SDS011;26089;43.538;5.250;2022-12-18T14:07:50;9.67;;;5.43;;
16288;SDS011;26089;43.538;5.250;2022-12-18T14:10:18;6.13;;;4.20;;
16288;SDS011;26089;43.538;5.250;2022-12-18T14:12:47;7.27;;;3.67;;
16288;SDS011;26089;43.538;5.250;2022-12-18T14:15:25;6.83;;;3.50;;
16288;SDS011;26089;43.538;5.250;2022-12-18T14:17:58;9.13;;;3.73;;
16288;SDS011;26089;43.538;5.250;2022-12-18T14:20:28;7.00;;;4.60;;
16288;SDS011;26089;43.538;5.250;2022-12-18T14:22:59;6.33;;;4.27;;
16288;SDS011;26089;43.538;5.250;2022-12-18T14:25:27;7.17;;;4.77;;
16288;SDS011;26089;43.538;5.250;2022-12-18T14:28:02;8.40;;;4.07;;
16288;SDS011;26089;43.538;5.250;2022-12-18T14:30:39;6.57;;;3.97;;
16288;SDS011;26089;43.538;5.250;2022-12-18T14:33:09;8.10;;;6.87;;
16288;SDS011;26089;43.538;5.250;2022-12-18T14:35:38;8.60;;;4.90;;
16288;SDS011;26089;43.538;5.250;2022-12-18T14:38:15;6.80;;;4.23;;
16288;SDS011;26089;43.538;5.250;2022-12-18T14:40:47;8.60;;;4.60;;
16288;SDS011;26089;43.538;5.250;2022-12-18T14:43:18;10.77;;;6.00;;
16288;SDS011;26089;43.538;5.250;2022-12-18T14:45:45;8.03;;;5.37;;
16288;SDS011;26089;43.538;5.250;2022-12-18T14:48:15;8.57;;;3.90;;
16288;SDS011;26089;43.538;5.250;2022-12-18T14:50:45;9.40;;;3.70;;
16288;SDS011;26089;43.538;5.250;2022-12-18T14:53:23;5.87;;;4.37;;
16288;SDS011;26089;43.538;5.250;2022-12-18T14:56:10;7.87;;;4.60;;
16288;SDS011;26089;43.538;5.250;2022-12-18T14:58:44;5.50;;;3.77;;
16288;SDS011;26089;43.538;5.250;2022-12-18T15:01:18;3.97;;;3.60;;
16288;SDS011;26089;43.538;5.250;2022-12-18T15:03:51;6.10;;;3.97;;
16288;SDS011;26089;43.538;5.250;2022-12-18T15:06:24;5.77;;;3.23;;
16288;SDS011;26089;43.538;5.250;2022-12-18T15:08:55;5.10;;;3.63;;
16288;SDS011;26089;43.538;5.250;2022-12-18T15:11:32;3.17;;;2.97;;
16288;SDS011;26089;43.538;5.250;2022-12-18T15:17:00;7.27;;;5.77;;
16288;SDS011;26089;43.538;5.250;2022-12-18T15:19:32;7.90;;;4.60;;
16288;SDS011;26089;43.538;5.250;2022-12-18T15:22:03;5.20;;;3.47;;
16288;SDS011;26089;43.538;5.250;2022-12-18T15:24:32;6.83;;;3.67;;